createdAt,value
2018-05-27T00:00:04.797Z,0.00
2018-05-27T00:01:04.847Z,0.00
2018-05-27T00:02:05.503Z,0.00
2018-05-27T00:03:04.955Z,0.00
2018-05-27T00:04:05.030Z,0.00
2018-05-27T00:05:05.053Z,0.00
2018-05-27T00:06:05.103Z,0.00
2018-05-27T00:07:05.156Z,0.00
2018-05-27T00:08:05.207Z,0.00
2018-05-27T00:09:05.281Z,0.00
2018-05-27T00:10:05.336Z,0.00
2018-05-27T00:11:05.358Z,0.00
2018-05-27T00:12:05.410Z,0.00
2018-05-27T00:13:05.461Z,0.00
2018-05-27T00:14:05.512Z,0.00
2018-05-27T00:15:05.602Z,0.00
2018-05-27T00:16:05.611Z,0.00
2018-05-27T00:17:05.665Z,0.00
2018-05-27T00:18:05.713Z,0.00
2018-05-27T00:19:05.765Z,0.00
2018-05-27T00:20:05.839Z,0.00
2018-05-27T00:21:05.891Z,0.00
2018-05-27T00:22:05.919Z,0.00
2018-05-27T00:23:05.970Z,0.00
2018-05-27T00:24:06.022Z,0.00
2018-05-27T00:25:07.012Z,0.00
2018-05-27T00:26:06.148Z,0.00
2018-05-27T00:27:06.175Z,0.00
2018-05-27T00:28:06.223Z,0.00
2018-05-27T00:29:06.277Z,0.00
2018-05-27T00:30:06.326Z,0.00
2018-05-27T00:31:06.402Z,0.00
2018-05-27T00:32:06.428Z,0.00
2018-05-27T00:33:06.483Z,0.00
2018-05-27T00:34:06.532Z,0.00
2018-05-27T00:35:06.581Z,0.00
2018-05-27T00:36:06.664Z,0.00
2018-05-27T00:37:06.683Z,0.00
2018-05-27T00:38:06.734Z,0.00
2018-05-27T00:39:06.788Z,0.00
2018-05-27T00:40:06.836Z,0.00
2018-05-27T00:41:06.910Z,0.00
2018-05-27T00:42:06.938Z,0.00
2018-05-27T00:43:06.993Z,0.00
2018-05-27T00:44:07.039Z,0.00
2018-05-27T00:45:07.093Z,0.00
2018-05-27T00:46:07.170Z,0.00
2018-05-27T00:47:07.228Z,0.00
2018-05-27T00:48:07.245Z,0.00
2018-05-27T00:49:07.298Z,0.00
2018-05-27T00:50:07.351Z,0.00
2018-05-27T00:51:07.398Z,0.00
2018-05-27T00:52:07.478Z,0.00
2018-05-27T00:53:07.525Z,0.00
2018-05-27T00:54:07.551Z,0.00
2018-05-27T00:55:07.605Z,0.00
2018-05-27T00:56:07.657Z,0.00
2018-05-27T00:57:07.704Z,0.00
2018-05-27T00:58:07.781Z,0.00
2018-05-27T00:59:07.806Z,0.00
2018-05-27T01:00:07.858Z,0.00
2018-05-27T01:01:07.910Z,0.00
2018-05-27T01:02:07.958Z,0.00
2018-05-27T01:03:08.035Z,0.00
2018-05-27T01:04:08.084Z,0.00
2018-05-27T01:05:08.153Z,0.00
2018-05-27T01:06:08.165Z,0.00
2018-05-27T01:07:08.235Z,0.00
2018-05-27T01:08:09.366Z,0.00
2018-05-27T01:09:09.545Z,0.00
2018-05-27T01:10:09.031Z,0.00
2018-05-27T01:11:09.147Z,0.00
2018-05-27T01:12:09.129Z,0.00
2018-05-27T01:13:09.014Z,0.00
2018-05-27T01:14:09.606Z,0.00
2018-05-27T01:15:08.974Z,0.00
2018-05-27T01:16:09.087Z,0.00
2018-05-27T01:17:09.067Z,0.00
2018-05-27T01:18:09.165Z,0.00
2018-05-27T01:19:09.202Z,0.00
2018-05-27T01:20:09.560Z,0.00
2018-05-27T01:21:08.932Z,0.00
2018-05-27T01:22:08.986Z,0.00
2018-05-27T01:23:09.036Z,0.00
2018-05-27T01:24:09.091Z,0.00
2018-05-27T01:25:09.159Z,0.00
2018-05-27T01:26:09.188Z,0.00
2018-05-27T01:27:09.239Z,0.00
2018-05-27T01:28:09.290Z,0.00
2018-05-27T01:29:09.342Z,0.00
2018-05-27T01:30:09.430Z,0.00
2018-05-27T01:31:09.446Z,0.00
2018-05-27T01:32:09.497Z,0.00
2018-05-27T01:33:09.548Z,0.00
2018-05-27T01:34:09.599Z,0.00
2018-05-27T01:35:09.692Z,0.00
2018-05-27T01:36:09.705Z,0.00
2018-05-27T01:37:09.760Z,0.00
2018-05-27T01:38:09.804Z,0.00
2018-05-27T01:39:09.857Z,0.00
2018-05-27T01:40:09.939Z,0.00
2018-05-27T01:41:09.957Z,0.00
2018-05-27T01:42:10.009Z,0.00
2018-05-27T01:43:10.062Z,0.00
2018-05-27T01:44:10.110Z,0.00
2018-05-27T01:45:10.194Z,0.00
2018-05-27T01:46:10.213Z,0.00
2018-05-27T01:47:10.265Z,0.00
2018-05-27T01:48:10.317Z,0.00
2018-05-27T01:49:10.366Z,0.00
2018-05-27T01:50:10.460Z,0.00
2018-05-27T01:51:10.471Z,0.00
2018-05-27T01:52:10.525Z,0.00
2018-05-27T01:53:10.572Z,0.00
2018-05-27T01:54:10.623Z,0.00
2018-05-27T01:55:10.697Z,0.00
2018-05-27T01:56:10.747Z,0.00
2018-05-27T01:57:10.783Z,0.00
2018-05-27T01:58:10.828Z,0.00
2018-05-27T01:59:10.877Z,0.00
2018-05-27T02:00:10.930Z,0.00
2018-05-27T02:01:11.003Z,0.00
2018-05-27T02:02:11.030Z,0.00
2018-05-27T02:03:11.087Z,0.00
2018-05-27T02:04:11.137Z,0.00
2018-05-27T02:05:11.187Z,0.00
2018-05-27T02:06:11.259Z,0.00
2018-05-27T02:07:11.311Z,0.00
2018-05-27T02:08:11.337Z,0.00
2018-05-27T02:09:11.388Z,0.00
2018-05-27T02:10:11.440Z,0.00
2018-05-27T02:11:11.523Z,0.00
2018-05-27T02:12:11.541Z,0.00
2018-05-27T02:13:11.592Z,0.00
2018-05-27T02:14:11.642Z,0.00
2018-05-27T02:15:11.694Z,0.00
2018-05-27T02:16:11.774Z,0.00
2018-05-27T02:17:11.798Z,0.00
2018-05-27T02:18:11.850Z,0.00
2018-05-27T02:19:39.542Z,0.00
2018-05-27T02:20:11.949Z,0.00
2018-05-27T02:21:12.023Z,0.00
2018-05-27T02:22:12.088Z,0.00
2018-05-27T02:23:12.104Z,0.00
2018-05-27T02:24:12.156Z,0.00
2018-05-27T02:25:12.210Z,0.00
2018-05-27T02:26:12.257Z,0.00
2018-05-27T02:27:12.334Z,0.00
2018-05-27T02:28:12.363Z,0.00
2018-05-27T02:29:12.407Z,0.00
2018-05-27T02:30:12.463Z,0.00
2018-05-27T02:31:12.509Z,0.00
2018-05-27T02:32:12.582Z,0.00
2018-05-27T02:33:12.634Z,0.00
2018-05-27T02:34:12.671Z,0.00
2018-05-27T02:35:12.714Z,0.00
2018-05-27T02:36:12.763Z,0.00
2018-05-27T02:37:12.816Z,0.00
2018-05-27T02:38:12.888Z,0.00
2018-05-27T02:39:12.918Z,0.00
2018-05-27T02:40:12.968Z,0.00
2018-05-27T02:41:13.020Z,0.00
2018-05-27T02:42:13.070Z,0.00
2018-05-27T02:43:13.146Z,0.00
2018-05-27T02:44:13.170Z,0.00
2018-05-27T02:45:13.221Z,0.00
2018-05-27T02:46:13.276Z,0.00
2018-05-27T02:47:13.328Z,0.00
2018-05-27T02:48:13.397Z,0.00
2018-05-27T02:49:13.425Z,0.00
2018-05-27T02:50:13.476Z,0.00
2018-05-27T02:51:13.527Z,0.00
2018-05-27T02:52:13.578Z,0.00
2018-05-27T02:53:13.655Z,0.00
2018-05-27T02:54:13.685Z,0.00
2018-05-27T02:55:13.733Z,0.00
2018-05-27T02:56:13.781Z,0.00
2018-05-27T02:57:13.832Z,0.00
2018-05-27T02:58:13.910Z,0.00
2018-05-27T02:59:13.970Z,0.00
2018-05-27T03:00:13.987Z,0.00
2018-05-27T03:01:14.037Z,0.00
2018-05-27T03:02:14.089Z,0.00
2018-05-27T03:03:14.137Z,0.00
2018-05-27T03:04:14.219Z,0.00
2018-05-27T03:05:14.241Z,0.00
2018-05-27T03:06:14.292Z,0.00
2018-05-27T03:07:14.350Z,0.00
2018-05-27T03:08:14.391Z,0.00
2018-05-27T03:09:14.469Z,0.00
2018-05-27T03:10:14.518Z,0.00
2018-05-27T03:11:14.545Z,0.00
2018-05-27T03:12:14.598Z,0.00
2018-05-27T03:13:14.644Z,0.00
2018-05-27T03:14:14.700Z,0.00
2018-05-27T03:15:14.774Z,0.00
2018-05-27T03:16:14.797Z,0.00
2018-05-27T03:17:14.850Z,0.00
2018-05-27T03:18:14.900Z,0.00
2018-05-27T03:19:14.950Z,0.00
2018-05-27T03:20:15.027Z,0.00
2018-05-27T03:21:15.053Z,0.00
2018-05-27T03:22:15.104Z,0.00
2018-05-27T03:23:15.154Z,0.00
2018-05-27T03:24:15.206Z,0.00
2018-05-27T03:25:15.279Z,0.00
2018-05-27T03:26:15.332Z,0.00
2018-05-27T03:27:15.357Z,5.63
2018-05-27T03:28:15.407Z,5.63
2018-05-27T03:29:15.457Z,5.63
2018-05-27T03:30:15.509Z,5.63
2018-05-27T03:31:15.585Z,5.63
2018-05-27T03:32:15.612Z,5.63
2018-05-27T03:33:15.662Z,5.63
2018-05-27T03:34:15.716Z,5.63
2018-05-27T03:35:15.763Z,11.25
2018-05-27T03:36:15.842Z,11.25
2018-05-27T03:37:15.865Z,11.25
2018-05-27T03:38:15.915Z,16.88
2018-05-27T03:39:15.967Z,16.88
2018-05-27T03:40:16.017Z,22.50
2018-05-27T03:41:16.121Z,22.50
2018-05-27T03:42:16.120Z,28.13
2018-05-27T03:43:16.172Z,28.13
2018-05-27T03:44:16.220Z,33.75
2018-05-27T03:45:16.271Z,39.38
2018-05-27T03:46:16.355Z,39.38
2018-05-27T03:47:16.373Z,39.38
2018-05-27T03:48:16.424Z,39.38
2018-05-27T03:49:16.474Z,45.00
2018-05-27T03:50:16.524Z,45.00
2018-05-27T03:51:16.619Z,45.00
2018-05-27T03:52:16.627Z,50.63
2018-05-27T03:53:16.679Z,50.63
2018-05-27T03:54:16.731Z,56.25
2018-05-27T03:55:16.781Z,56.25
2018-05-27T03:56:16.867Z,56.25
2018-05-27T03:57:16.884Z,61.88
2018-05-27T03:58:16.932Z,61.88
2018-05-27T03:59:16.983Z,67.50
2018-05-27T04:00:17.032Z,73.13
2018-05-27T04:01:17.112Z,73.13
2018-05-27T04:02:17.133Z,78.75
2018-05-27T04:03:17.187Z,78.75
2018-05-27T04:04:17.236Z,84.38
2018-05-27T04:05:17.287Z,84.38
2018-05-27T04:06:17.364Z,90.00
2018-05-27T04:07:17.395Z,90.00
2018-05-27T04:08:17.443Z,90.00
2018-05-27T04:09:17.492Z,95.63
2018-05-27T04:10:17.541Z,95.63
2018-05-27T04:11:17.616Z,95.63
2018-05-27T04:12:17.642Z,95.63
2018-05-27T04:13:17.715Z,101.25
2018-05-27T04:14:17.749Z,101.25
2018-05-27T04:15:17.797Z,101.25
2018-05-27T04:16:17.846Z,101.25
2018-05-27T04:17:17.919Z,101.25
2018-05-27T04:18:17.971Z,101.25
2018-05-27T04:19:18.002Z,101.25
2018-05-27T04:20:18.051Z,101.25
2018-05-27T04:21:18.101Z,101.25
2018-05-27T04:22:18.151Z,101.25
2018-05-27T04:23:18.278Z,101.25
2018-05-27T04:24:18.254Z,101.25
2018-05-27T04:25:18.308Z,101.25
2018-05-27T04:26:18.357Z,101.25
2018-05-27T04:27:18.410Z,101.25
2018-05-27T04:28:18.526Z,101.25
2018-05-27T04:29:18.509Z,101.25
2018-05-27T04:30:18.559Z,101.25
2018-05-27T04:31:18.613Z,101.25
2018-05-27T04:32:18.665Z,101.25
2018-05-27T04:33:18.739Z,95.63
2018-05-27T04:34:18.766Z,95.63
2018-05-27T04:35:18.815Z,95.63
2018-05-27T04:36:18.864Z,95.63
2018-05-27T04:37:18.916Z,101.25
2018-05-27T04:38:18.993Z,101.25
2018-05-27T04:39:19.018Z,101.25
2018-05-27T04:40:19.093Z,101.25
2018-05-27T04:41:19.121Z,101.25
2018-05-27T04:42:19.170Z,101.25
2018-05-27T04:43:19.224Z,101.25
2018-05-27T04:44:19.272Z,101.25
2018-05-27T04:45:19.349Z,101.25
2018-05-27T04:46:19.374Z,106.88
2018-05-27T04:47:19.430Z,106.88
2018-05-27T04:48:19.480Z,106.88
2018-05-27T04:49:19.530Z,106.88
2018-05-27T04:50:19.603Z,112.50
2018-05-27T04:51:19.655Z,112.50
2018-05-27T04:52:19.681Z,112.50
2018-05-27T04:53:19.740Z,112.50
2018-05-27T04:54:19.782Z,112.50
2018-05-27T04:55:19.861Z,112.50
2018-05-27T04:56:19.911Z,112.50
2018-05-27T04:57:19.936Z,112.50
2018-05-27T04:58:19.989Z,112.50
2018-05-27T04:59:20.047Z,112.50
2018-05-27T05:00:20.090Z,112.50
2018-05-27T05:01:20.185Z,112.50
2018-05-27T05:02:20.195Z,112.50
2018-05-27T05:03:20.242Z,112.50
2018-05-27T05:04:20.295Z,112.50
2018-05-27T05:05:20.344Z,112.50
2018-05-27T05:06:20.429Z,112.50
2018-05-27T05:07:20.446Z,112.50
2018-05-27T05:08:20.499Z,112.50
2018-05-27T05:09:20.551Z,112.50
2018-05-27T05:10:20.599Z,112.50
2018-05-27T05:11:20.677Z,112.50
2018-05-27T05:12:20.725Z,112.50
2018-05-27T05:13:20.752Z,118.13
2018-05-27T05:14:20.805Z,118.13
2018-05-27T05:15:20.859Z,118.13
2018-05-27T05:16:20.910Z,118.13
2018-05-27T05:17:20.996Z,118.13
2018-05-27T05:18:21.017Z,118.13
2018-05-27T05:19:21.059Z,123.75
2018-05-27T05:20:21.110Z,123.75
2018-05-27T05:21:21.163Z,129.38
2018-05-27T05:22:21.239Z,129.38
2018-05-27T05:23:21.266Z,135.00
2018-05-27T05:24:21.331Z,135.00
2018-05-27T05:25:21.365Z,140.63
2018-05-27T05:26:21.424Z,146.25
2018-05-27T05:27:21.496Z,157.50
2018-05-27T05:28:21.542Z,157.50
2018-05-27T05:29:21.568Z,163.13
2018-05-27T05:30:21.619Z,163.13
2018-05-27T05:31:21.670Z,168.75
2018-05-27T05:32:21.721Z,174.38
2018-05-27T05:33:21.798Z,180.00
2018-05-27T05:34:21.822Z,180.00
2018-05-27T05:35:21.877Z,180.00
2018-05-27T05:36:21.978Z,185.63
2018-05-27T05:37:21.976Z,191.25
2018-05-27T05:38:22.053Z,191.25
2018-05-27T05:39:22.101Z,196.88
2018-05-27T05:40:22.132Z,202.50
2018-05-27T05:41:22.184Z,202.50
2018-05-27T05:42:22.234Z,208.13
2018-05-27T05:43:22.283Z,213.75
2018-05-27T05:44:22.356Z,213.75
2018-05-27T05:45:22.389Z,219.38
2018-05-27T05:46:22.439Z,225.00
2018-05-27T05:47:22.485Z,225.00
2018-05-27T05:48:22.538Z,230.63
2018-05-27T05:49:22.677Z,236.25
2018-05-27T05:50:22.638Z,241.88
2018-05-27T05:51:22.690Z,247.50
2018-05-27T05:52:22.740Z,247.50
2018-05-27T05:53:22.791Z,253.13
2018-05-27T05:54:22.876Z,258.75
2018-05-27T05:55:22.893Z,270.00
2018-05-27T05:56:22.945Z,275.63
2018-05-27T05:57:22.996Z,281.25
2018-05-27T05:58:23.048Z,292.50
2018-05-27T05:59:23.131Z,292.50
2018-05-27T06:00:23.151Z,303.75
2018-05-27T06:01:23.201Z,309.38
2018-05-27T06:02:23.252Z,320.63
2018-05-27T06:03:23.303Z,326.25
2018-05-27T06:04:23.407Z,326.25
2018-05-27T06:05:23.405Z,331.88
2018-05-27T06:06:23.458Z,343.13
2018-05-27T06:07:23.508Z,348.75
2018-05-27T06:08:23.559Z,354.38
2018-05-27T06:09:23.637Z,365.63
2018-05-27T06:10:23.683Z,371.25
2018-05-27T06:11:23.713Z,376.88
2018-05-27T06:12:23.770Z,382.50
2018-05-27T06:13:23.816Z,382.50
2018-05-27T06:14:23.868Z,388.13
2018-05-27T06:15:23.944Z,393.75
2018-05-27T06:16:23.970Z,405.00
2018-05-27T06:17:24.022Z,399.38
2018-05-27T06:18:24.072Z,399.38
2018-05-27T06:19:24.126Z,399.38
2018-05-27T06:20:24.200Z,399.38
2018-05-27T06:21:24.227Z,393.75
2018-05-27T06:22:24.280Z,393.75
2018-05-27T06:23:24.335Z,388.13
2018-05-27T06:24:24.394Z,388.13
2018-05-27T06:25:24.461Z,382.50
2018-05-27T06:26:24.517Z,382.50
2018-05-27T06:27:24.537Z,382.50
2018-05-27T06:28:24.588Z,376.88
2018-05-27T06:29:24.639Z,376.88
2018-05-27T06:30:24.690Z,382.50
2018-05-27T06:31:24.766Z,382.50
2018-05-27T06:32:24.794Z,382.50
2018-05-27T06:33:24.845Z,382.50
2018-05-27T06:34:24.897Z,382.50
2018-05-27T06:35:24.950Z,376.88
2018-05-27T06:36:25.024Z,376.88
2018-05-27T06:37:25.052Z,382.50
2018-05-27T06:38:25.107Z,388.13
2018-05-27T06:39:25.176Z,388.13
2018-05-27T06:40:25.208Z,388.13
2018-05-27T06:41:25.288Z,388.13
2018-05-27T06:42:25.309Z,393.75
2018-05-27T06:43:25.394Z,393.75
2018-05-27T06:44:25.416Z,399.38
2018-05-27T06:45:25.465Z,405.00
2018-05-27T06:46:25.519Z,410.63
2018-05-27T06:47:25.569Z,416.25
2018-05-27T06:48:25.643Z,427.50
2018-05-27T06:49:25.677Z,433.13
2018-05-27T06:50:25.724Z,444.38
2018-05-27T06:51:25.777Z,455.63
2018-05-27T06:52:25.865Z,466.88
2018-05-27T06:53:25.881Z,483.75
2018-05-27T06:54:25.933Z,495.00
2018-05-27T06:55:25.983Z,495.00
2018-05-27T06:56:26.037Z,506.25
2018-05-27T06:57:26.119Z,523.13
2018-05-27T06:58:26.142Z,534.38
2018-05-27T06:59:26.191Z,540.00
2018-05-27T07:00:26.243Z,556.88
2018-05-27T07:01:26.295Z,562.50
2018-05-27T07:02:26.662Z,585.00
2018-05-27T07:03:26.399Z,624.38
2018-05-27T07:04:26.499Z,646.88
2018-05-27T07:05:26.502Z,697.50
2018-05-27T07:06:26.554Z,770.63
2018-05-27T07:07:26.645Z,798.75
2018-05-27T07:08:26.666Z,815.63
2018-05-27T07:09:26.712Z,781.88
2018-05-27T07:10:26.761Z,781.88
2018-05-27T07:11:26.815Z,787.50
2018-05-27T07:12:26.895Z,725.63
2018-05-27T07:13:26.918Z,663.75
2018-05-27T07:14:26.971Z,618.75
2018-05-27T07:15:27.027Z,590.63
2018-05-27T07:16:27.074Z,590.63
2018-05-27T07:17:27.150Z,590.63
2018-05-27T07:18:27.180Z,596.25
2018-05-27T07:19:27.274Z,607.50
2018-05-27T07:20:27.284Z,635.63
2018-05-27T07:21:27.337Z,669.38
2018-05-27T07:22:27.389Z,759.38
2018-05-27T07:23:27.444Z,849.38
2018-05-27T07:24:27.521Z,860.63
2018-05-27T07:25:27.547Z,866.25
2018-05-27T07:26:27.600Z,821.25
2018-05-27T07:27:27.651Z,787.50
2018-05-27T07:28:27.727Z,821.25
2018-05-27T07:29:27.760Z,776.25
2018-05-27T07:30:27.811Z,798.75
2018-05-27T07:31:27.864Z,815.63
2018-05-27T07:32:27.916Z,781.88
2018-05-27T07:33:27.991Z,843.75
2018-05-27T07:34:28.018Z,821.25
2018-05-27T07:35:28.102Z,804.38
2018-05-27T07:36:28.123Z,826.88
2018-05-27T07:37:28.181Z,883.13
2018-05-27T07:38:28.234Z,838.13
2018-05-27T07:39:28.287Z,810.00
2018-05-27T07:40:28.361Z,838.13
2018-05-27T07:41:28.393Z,984.38
2018-05-27T07:42:28.445Z,978.75
2018-05-27T07:43:28.493Z,956.25
2018-05-27T07:44:28.546Z,933.75
2018-05-27T07:45:28.625Z,1057.50
2018-05-27T07:46:28.654Z,1170.00
2018-05-27T07:47:28.706Z,1046.25
2018-05-27T07:48:28.766Z,1254.38
2018-05-27T07:49:28.840Z,1035.00
2018-05-27T07:50:28.866Z,950.63
2018-05-27T07:51:28.918Z,967.50
2018-05-27T07:52:29.011Z,1006.88
2018-05-27T07:53:29.036Z,1198.13
2018-05-27T07:54:29.111Z,1108.13
2018-05-27T07:55:29.128Z,1051.88
2018-05-27T07:56:29.183Z,1102.50
2018-05-27T07:57:29.235Z,1035.00
2018-05-27T07:58:29.350Z,1085.63
2018-05-27T07:59:29.376Z,1091.25
2018-05-27T08:00:29.398Z,1164.38
2018-05-27T08:01:29.452Z,1158.75
2018-05-27T08:02:29.503Z,1175.63
2018-05-27T08:03:29.553Z,1119.38
2018-05-27T08:04:29.638Z,1051.88
2018-05-27T08:05:29.664Z,1338.75
2018-05-27T08:06:29.719Z,1338.75
2018-05-27T08:07:29.771Z,1378.13
2018-05-27T08:08:29.824Z,1344.38
2018-05-27T08:09:29.913Z,1231.88
2018-05-27T08:10:29.933Z,1175.63
2018-05-27T08:11:29.987Z,1147.50
2018-05-27T08:12:30.040Z,1153.13
2018-05-27T08:13:30.092Z,1192.50
2018-05-27T08:14:30.172Z,1282.50
2018-05-27T08:15:30.204Z,1186.88
2018-05-27T08:16:30.253Z,1293.75
2018-05-27T08:17:30.330Z,1569.38
2018-05-27T08:18:30.364Z,1513.13
2018-05-27T08:19:30.441Z,1490.63
2018-05-27T08:20:30.487Z,1406.25
2018-05-27T08:21:30.524Z,1389.38
2018-05-27T08:22:30.602Z,1400.63
2018-05-27T08:23:30.635Z,1400.63
2018-05-27T08:24:30.713Z,1440.00
2018-05-27T08:25:30.745Z,1501.88
2018-05-27T08:26:30.795Z,1563.75
2018-05-27T08:27:30.893Z,1575.00
2018-05-27T08:28:30.904Z,1721.25
2018-05-27T08:29:30.964Z,1743.75
2018-05-27T08:30:31.015Z,1777.50
2018-05-27T08:31:31.077Z,1732.50
2018-05-27T08:32:31.148Z,1884.38
2018-05-27T08:33:31.179Z,1856.25
2018-05-27T08:34:31.238Z,1856.25
2018-05-27T08:35:31.326Z,1895.63
2018-05-27T08:36:31.347Z,1833.75
2018-05-27T08:37:31.402Z,1901.25
2018-05-27T08:38:31.497Z,1940.63
2018-05-27T08:39:31.514Z,1940.63
2018-05-27T08:40:31.566Z,1974.38
2018-05-27T08:41:31.624Z,1918.13
2018-05-27T08:42:31.684Z,1901.25
2018-05-27T08:43:31.776Z,1839.38
2018-05-27T08:44:31.797Z,1923.75
2018-05-27T08:45:31.872Z,1991.25
2018-05-27T08:46:31.904Z,2008.13
2018-05-27T08:47:31.961Z,1918.13
2018-05-27T08:48:32.012Z,1895.63
2018-05-27T08:49:32.091Z,1957.50
2018-05-27T08:50:32.126Z,1991.25
2018-05-27T08:51:32.210Z,1929.38
2018-05-27T08:52:32.259Z,1963.13
2018-05-27T08:53:32.294Z,1991.25
2018-05-27T08:54:32.374Z,2013.75
2018-05-27T08:55:32.406Z,1951.88
2018-05-27T08:56:32.463Z,1957.50
2018-05-27T08:57:32.543Z,1912.50
2018-05-27T08:58:32.587Z,1749.38
2018-05-27T08:59:32.663Z,1710.00
2018-05-27T09:00:32.689Z,1760.63
2018-05-27T09:01:32.778Z,1777.50
2018-05-27T09:02:32.801Z,1828.13
2018-05-27T09:03:32.857Z,1800.00
2018-05-27T09:04:32.940Z,1816.88
2018-05-27T09:05:32.974Z,1788.75
2018-05-27T09:06:33.032Z,1811.25
2018-05-27T09:07:33.091Z,1861.88
2018-05-27T09:08:33.143Z,1833.75
2018-05-27T09:09:33.223Z,1828.13
2018-05-27T09:10:33.253Z,1856.25
2018-05-27T09:11:33.312Z,1833.75
2018-05-27T09:12:33.367Z,1777.50
2018-05-27T09:13:33.467Z,1693.13
2018-05-27T09:14:33.483Z,1642.50
2018-05-27T09:15:33.541Z,1636.88
2018-05-27T09:16:33.595Z,1625.63
2018-05-27T09:17:33.652Z,1614.38
2018-05-27T09:18:33.732Z,1580.63
2018-05-27T09:19:33.766Z,1558.13
2018-05-27T09:20:33.848Z,1518.75
2018-05-27T09:21:33.882Z,1327.50
2018-05-27T09:22:33.936Z,1316.25
2018-05-27T09:23:33.996Z,1445.63
2018-05-27T09:24:34.074Z,1400.63
2018-05-27T09:25:34.108Z,1395.00
2018-05-27T09:26:34.166Z,1378.13
2018-05-27T09:27:34.222Z,1372.50
2018-05-27T09:28:34.288Z,1372.50
2018-05-27T09:29:34.361Z,1372.50
2018-05-27T09:30:34.408Z,1350.00
2018-05-27T09:31:34.476Z,1350.00
2018-05-27T09:32:34.509Z,1361.25
2018-05-27T09:33:34.567Z,1350.00
2018-05-27T09:34:34.623Z,1344.38
2018-05-27T09:35:34.679Z,1316.25
2018-05-27T09:36:34.760Z,1310.63
2018-05-27T09:37:34.802Z,1321.88
2018-05-27T09:38:34.853Z,1305.00
2018-05-27T09:39:34.910Z,1350.00
2018-05-27T09:40:35.023Z,1355.63
2018-05-27T09:41:35.027Z,1406.25
2018-05-27T09:42:35.084Z,1428.75
2018-05-27T09:43:35.141Z,1507.50
2018-05-27T09:44:35.199Z,1569.38
2018-05-27T09:45:35.280Z,1670.63
2018-05-27T09:46:35.312Z,1755.00
2018-05-27T09:47:35.395Z,1833.75
2018-05-27T09:48:35.427Z,1906.88
2018-05-27T09:49:35.487Z,1991.25
2018-05-27T09:50:35.555Z,2047.50
2018-05-27T09:51:35.627Z,2171.25
2018-05-27T09:52:35.659Z,2216.25
2018-05-27T09:53:35.745Z,2250.00
2018-05-27T09:54:35.784Z,2289.38
2018-05-27T09:55:35.835Z,2317.50
2018-05-27T09:56:35.917Z,2345.63
2018-05-27T09:57:35.952Z,2295.00
2018-05-27T09:58:36.036Z,2047.50
2018-05-27T09:59:36.066Z,1591.88
2018-05-27T10:00:36.124Z,1473.75
2018-05-27T10:01:36.180Z,1816.88
2018-05-27T10:02:36.243Z,2013.75
2018-05-27T10:03:36.327Z,1811.25
2018-05-27T10:04:36.356Z,1558.13
2018-05-27T10:05:36.413Z,1732.50
2018-05-27T10:06:36.471Z,2137.50
2018-05-27T10:07:36.531Z,2171.25
2018-05-27T10:08:36.611Z,2126.25
2018-05-27T10:09:36.646Z,2092.50
2018-05-27T10:10:36.704Z,1884.38
2018-05-27T10:11:36.761Z,1760.63
2018-05-27T10:12:36.821Z,1974.38
2018-05-27T10:13:36.905Z,1918.13
2018-05-27T10:14:36.934Z,1856.25
2018-05-27T10:15:36.999Z,1850.63
2018-05-27T10:16:37.050Z,1822.50
2018-05-27T10:17:37.108Z,1805.63
2018-05-27T10:18:37.203Z,1816.88
2018-05-27T10:19:37.228Z,1783.13
2018-05-27T10:20:37.282Z,1788.75
2018-05-27T10:21:37.344Z,1805.63
2018-05-27T10:22:37.403Z,1828.13
2018-05-27T10:23:37.482Z,1873.13
2018-05-27T10:24:37.541Z,1884.38
2018-05-27T10:25:37.579Z,1895.63
2018-05-27T10:26:37.633Z,1918.13
2018-05-27T10:27:37.696Z,1940.63
2018-05-27T10:28:37.773Z,1946.25
2018-05-27T10:29:37.809Z,1957.50
2018-05-27T10:30:37.868Z,1929.38
2018-05-27T10:31:37.930Z,1985.63
2018-05-27T10:32:37.985Z,2008.13
2018-05-27T10:33:38.067Z,2002.50
2018-05-27T10:34:38.103Z,1957.50
2018-05-27T10:35:38.185Z,1912.50
2018-05-27T10:36:38.220Z,1743.75
2018-05-27T10:37:38.278Z,1603.13
2018-05-27T10:38:38.335Z,1541.25
2018-05-27T10:39:38.395Z,1400.63
2018-05-27T10:40:38.477Z,1282.50
2018-05-27T10:41:38.520Z,1321.88
2018-05-27T10:42:38.571Z,1305.00
2018-05-27T10:43:38.628Z,1226.25
2018-05-27T10:44:38.686Z,1265.63
2018-05-27T10:45:38.769Z,1248.75
2018-05-27T10:46:38.810Z,1265.63
2018-05-27T10:47:38.864Z,1271.25
2018-05-27T10:48:38.920Z,1293.75
2018-05-27T10:49:39.006Z,1327.50
2018-05-27T10:50:39.041Z,1288.13
2018-05-27T10:51:39.121Z,1333.13
2018-05-27T10:52:39.157Z,1411.88
2018-05-27T10:53:39.212Z,1417.50
2018-05-27T10:54:39.272Z,1181.25
2018-05-27T10:55:39.372Z,1423.13
2018-05-27T10:56:39.390Z,1501.88
2018-05-27T10:57:39.442Z,1552.50
2018-05-27T10:58:39.503Z,1580.63
2018-05-27T10:59:39.560Z,1653.75
2018-05-27T11:00:39.648Z,1608.75
2018-05-27T11:01:39.694Z,1558.13
2018-05-27T11:02:39.731Z,1653.75
2018-05-27T11:03:39.791Z,1636.88
2018-05-27T11:04:39.845Z,1563.75
2018-05-27T11:05:39.988Z,1642.50
2018-05-27T11:06:39.962Z,1766.25
2018-05-27T11:07:40.045Z,1760.63
2018-05-27T11:08:40.081Z,1856.25
2018-05-27T11:09:40.135Z,1878.75
2018-05-27T11:10:40.194Z,1777.50
2018-05-27T11:11:40.273Z,1918.13
2018-05-27T11:12:40.305Z,2036.25
2018-05-27T11:13:40.367Z,2126.25
2018-05-27T11:14:40.418Z,2233.13
2018-05-27T11:15:40.476Z,2278.13
2018-05-27T11:16:40.571Z,2373.75
2018-05-27T11:17:40.592Z,2385.00
2018-05-27T11:18:40.649Z,2317.50
2018-05-27T11:19:40.703Z,2182.50
2018-05-27T11:20:40.769Z,2064.38
2018-05-27T11:21:40.840Z,1878.75
2018-05-27T11:22:40.879Z,1957.50
2018-05-27T11:23:40.951Z,2064.38
2018-05-27T11:24:40.987Z,2154.38
2018-05-27T11:25:41.051Z,2188.13
2018-05-27T11:26:41.097Z,2278.13
2018-05-27T11:27:41.187Z,2373.75
2018-05-27T11:28:41.211Z,2362.50
2018-05-27T11:29:41.266Z,2368.13
2018-05-27T11:30:41.322Z,2463.75
2018-05-27T11:31:41.383Z,2469.38
2018-05-27T11:32:41.513Z,2469.38
2018-05-27T11:33:41.491Z,2520.00
2018-05-27T11:34:41.547Z,2458.13
2018-05-27T11:35:41.606Z,2626.88
2018-05-27T11:36:41.663Z,2739.38
2018-05-27T11:37:41.748Z,2694.38
2018-05-27T11:38:41.778Z,2739.38
2018-05-27T11:39:41.829Z,2739.38
2018-05-27T11:40:41.887Z,2891.25
2018-05-27T11:41:41.944Z,2823.75
2018-05-27T11:42:42.026Z,2936.25
2018-05-27T11:43:42.061Z,2801.25
2018-05-27T11:44:42.142Z,2688.75
2018-05-27T11:45:42.176Z,2795.63
2018-05-27T11:46:42.229Z,2778.75
2018-05-27T11:47:42.287Z,2868.75
2018-05-27T11:48:42.444Z,2880.00
2018-05-27T11:49:42.400Z,2975.63
2018-05-27T11:50:42.950Z,2902.50
2018-05-27T11:51:42.518Z,2958.75
2018-05-27T11:52:42.589Z,2874.38
2018-05-27T11:53:42.662Z,2745.00
2018-05-27T11:54:42.689Z,2368.13
2018-05-27T11:55:42.747Z,2182.50
2018-05-27T11:56:42.804Z,2295.00
2018-05-27T11:57:42.866Z,2272.50
2018-05-27T11:58:42.947Z,2340.00
2018-05-27T11:59:42.978Z,2430.00
2018-05-27T12:00:43.060Z,2407.50
2018-05-27T12:01:43.104Z,2520.00
2018-05-27T12:02:44.957Z,2576.25
2018-05-27T12:03:43.207Z,2722.50
2018-05-27T12:04:43.263Z,2863.13
2018-05-27T12:05:43.348Z,2941.88
2018-05-27T12:06:43.384Z,2975.63
2018-05-27T12:07:43.439Z,3082.50
2018-05-27T12:08:43.499Z,3121.88
2018-05-27T12:09:43.798Z,3026.25
2018-05-27T12:10:43.612Z,3155.63
2018-05-27T12:11:43.713Z,3200.63
2018-05-27T12:12:43.729Z,3166.88
2018-05-27T12:13:43.787Z,3133.13
2018-05-27T12:14:43.892Z,3144.38
2018-05-27T12:15:43.906Z,3009.38
2018-05-27T12:16:43.965Z,3054.38
2018-05-27T12:17:44.023Z,2919.38
2018-05-27T12:18:44.083Z,2874.38
2018-05-27T12:19:44.174Z,2773.13
2018-05-27T12:20:44.202Z,2773.13
2018-05-27T12:21:44.263Z,2756.25
2018-05-27T12:22:44.321Z,2778.75
2018-05-27T12:23:44.381Z,2761.88
2018-05-27T12:24:44.466Z,2756.25
2018-05-27T12:25:44.499Z,2733.75
2018-05-27T12:26:44.558Z,2750.63
2018-05-27T12:27:44.640Z,2801.25
2018-05-27T12:28:44.677Z,2835.00
2018-05-27T12:29:44.792Z,2863.13
2018-05-27T12:30:44.821Z,2913.75
2018-05-27T12:31:44.860Z,2953.13
2018-05-27T12:32:44.915Z,2998.13
2018-05-27T12:33:44.979Z,3015.00
2018-05-27T12:34:45.036Z,3054.38